NZAA Airport Information

Runway Information
Runway 05L Length 10197 ft width 148 ft
Elevation 15 ft Threshold 1148 ft Heading 71
Runway 23R Length 10197 ft Width 148 ft
Elevation 22 ft Threshold 1542 ft Heading 251
Runway 05R Length 11926 ft width 148 ft
Elevation 15 ft Threshold 1125 ft Heading 72
Runway 23L Length 11926 ft Width 148 ft
Elevation 23 ft Threshold 0 ft Heading 252
Airport Frequencies
Type APP Name APP Frequency 124.3 MHZ
Type ATIS Name ATIS Frequency 127.8 MHZ
Type CLD Name CLNC DEL Frequency 128.2 MHZ
Type GND Name GND Frequency 121.9 MHZ
Type TWR Name TWR Frequency 118.7 MHZ
Airport Navaids
Type VOR-DME Name Auckland Frequency 114800 KHZ
Type NDB Name Whitford Frequency 334 KHZ
Type NDB Name Westpoint Frequency 398 KHZ
Airport Weather Information & NOTAM
ADDS - METARS form results

(1949 UTC 25 April 2019)
Data provider http://aviationweather.gov/metar/data/
 
METAR text: NZAA 251930Z AUTO 23013KT 9999 BKN023/// BKN028/// OVC040/// 17/14 Q1016 NOSIG
Conditions at: NZAA (AUCKLAND INTL AR, NZ) observed 1930 UTC 25 April 2019
Temperature: 17.0°C (63°F)
Dewpoint: 14.0°C (57°F) [RH = 82%]
Pressure (altimeter): 30.00 inches Hg (1016.0 mb)
Winds: from the SW (230 degrees) at 15 MPH (13 knots; 6.7 m/s)
Visibility: 6 or more miles (10+ km)
Ceiling: 2300 feet AGL
Clouds: broken clouds at 2300 feet AGL
broken clouds at 2800 feet AGL
overcast cloud deck at 4000 feet AGL
Weather: no significant weather observed at this time

METAR text: NZAA 251900Z AUTO 22012KT 9999 OVC035/// 17/13 Q1015 NOSIG
Conditions at: NZAA (AUCKLAND INTL AR, NZ) observed 1900 UTC 25 April 2019
Temperature: 17.0°C (63°F)
Dewpoint: 13.0°C (55°F) [RH = 77%]
Pressure (altimeter): 29.97 inches Hg (1015.0 mb)
Winds: from the SW (220 degrees) at 14 MPH (12 knots; 6.2 m/s)
Visibility: 6 or more miles (10+ km)
Ceiling: 3500 feet AGL
Clouds: overcast cloud deck at 3500 feet AGL
Weather: no significant weather observed at this time

Forecast for: AMD
Text: TAF AMD NZAA 251751Z 2517/2618 24015KT 9999 -SHRA BKN025
Forecast period: 1700 UTC 25 April 2019 to 0800 UTC 26 April 2019
Forecast type: FROM: standard forecast or significant change
Winds: from the WSW (240 degrees) at 17 MPH (15 knots; 7.7 m/s)
Visibility: 6 or more miles 10+ km)
Ceiling: 2500 feet AGL
Clouds: broken clouds at 2500 feet AGL
Weather: -SHRA  (light rain showers)
Text: BECMG 2608/2610 VRB02KT
Forecast period: 0800 to 1800 UTC 26 April 2019
Forecast type: BECOMING: Conditions expected to become as follows by 1000 UTC 26 April 2019
Winds: variable direction winds at 2 MPH (2 knots; 1.0 m/s)
Visibility: 6 or more miles 10+ km)
Ceiling: 2500 feet AGL
Clouds: broken clouds at 2500 feet AGL
Weather: -SHRA  (light rain showers)
Text: PROB30 2612/2618 0500 FG
Forecast period: 1200 to 1800 UTC 26 April 2019
Forecast type: PROBABLE: 30 percent likelihood of the following during this time
Visibility: 0.31 miles (0.50 km)
Ceiling: unknown
Clouds: missing
Weather: FG  (fog)